sensor_id;sensor_type;location;lat;lon;timestamp;P1;durP1;ratioP1;P2;durP2;ratioP2
10450;SDS011;5273;51.290;6.918;2022-12-18T00:00:44;8.17;;;3.87;;
10450;SDS011;5273;51.290;6.918;2022-12-18T00:03:11;8.97;;;4.10;;
10450;SDS011;5273;51.290;6.918;2022-12-18T00:05:46;8.13;;;4.00;;
10450;SDS011;5273;51.290;6.918;2022-12-18T00:08:13;6.47;;;4.10;;
10450;SDS011;5273;51.290;6.918;2022-12-18T00:10:41;11.03;;;3.73;;
10450;SDS011;5273;51.290;6.918;2022-12-18T00:13:08;6.60;;;4.40;;
10450;SDS011;5273;51.290;6.918;2022-12-18T00:15:35;7.20;;;3.67;;
10450;SDS011;5273;51.290;6.918;2022-12-18T00:18:02;6.07;;;3.70;;
10450;SDS011;5273;51.290;6.918;2022-12-18T00:20:29;6.17;;;3.70;;
10450;SDS011;5273;51.290;6.918;2022-12-18T00:22:57;7.17;;;4.47;;
10450;SDS011;5273;51.290;6.918;2022-12-18T00:25:23;6.80;;;3.80;;
10450;SDS011;5273;51.290;6.918;2022-12-18T00:27:50;6.33;;;4.23;;
10450;SDS011;5273;51.290;6.918;2022-12-18T00:30:17;7.83;;;4.07;;
10450;SDS011;5273;51.290;6.918;2022-12-18T00:32:44;7.80;;;4.17;;
10450;SDS011;5273;51.290;6.918;2022-12-18T00:35:11;5.97;;;4.00;;
10450;SDS011;5273;51.290;6.918;2022-12-18T00:37:38;7.07;;;4.00;;
10450;SDS011;5273;51.290;6.918;2022-12-18T00:40:07;7.43;;;4.80;;
10450;SDS011;5273;51.290;6.918;2022-12-18T00:42:37;8.47;;;3.67;;
10450;SDS011;5273;51.290;6.918;2022-12-18T00:45:26;8.73;;;4.20;;
10450;SDS011;5273;51.290;6.918;2022-12-18T00:47:55;6.83;;;4.37;;
10450;SDS011;5273;51.290;6.918;2022-12-18T00:50:23;5.37;;;3.93;;
10450;SDS011;5273;51.290;6.918;2022-12-18T00:52:51;5.40;;;4.03;;
10450;SDS011;5273;51.290;6.918;2022-12-18T00:55:19;7.70;;;4.10;;
10450;SDS011;5273;51.290;6.918;2022-12-18T00:57:46;8.87;;;4.57;;
10450;SDS011;5273;51.290;6.918;2022-12-18T01:00:13;6.87;;;4.20;;
10450;SDS011;5273;51.290;6.918;2022-12-18T01:02:41;11.87;;;5.60;;
10450;SDS011;5273;51.290;6.918;2022-12-18T01:05:08;9.33;;;4.93;;
10450;SDS011;5273;51.290;6.918;2022-12-18T01:07:37;9.70;;;5.37;;
10450;SDS011;5273;51.290;6.918;2022-12-18T01:10:05;5.40;;;3.93;;
10450;SDS011;5273;51.290;6.918;2022-12-18T01:12:35;7.57;;;3.77;;
10450;SDS011;5273;51.290;6.918;2022-12-18T01:15:02;6.83;;;4.43;;
10450;SDS011;5273;51.290;6.918;2022-12-18T01:17:30;6.47;;;4.83;;
10450;SDS011;5273;51.290;6.918;2022-12-18T01:19:57;6.13;;;4.37;;
10450;SDS011;5273;51.290;6.918;2022-12-18T01:22:23;6.70;;;4.10;;
10450;SDS011;5273;51.290;6.918;2022-12-18T01:24:50;7.33;;;4.70;;
10450;SDS011;5273;51.290;6.918;2022-12-18T01:27:17;8.07;;;4.10;;
10450;SDS011;5273;51.290;6.918;2022-12-18T01:29:45;11.60;;;5.10;;
10450;SDS011;5273;51.290;6.918;2022-12-18T01:32:12;8.37;;;4.57;;
10450;SDS011;5273;51.290;6.918;2022-12-18T01:34:39;8.10;;;4.17;;
10450;SDS011;5273;51.290;6.918;2022-12-18T01:37:06;8.17;;;4.30;;
10450;SDS011;5273;51.290;6.918;2022-12-18T01:39:32;7.53;;;4.63;;
10450;SDS011;5273;51.290;6.918;2022-12-18T01:41:59;8.40;;;4.73;;
10450;SDS011;5273;51.290;6.918;2022-12-18T01:47:22;7.67;;;4.20;;
10450;SDS011;5273;51.290;6.918;2022-12-18T01:49:52;8.70;;;3.97;;
10450;SDS011;5273;51.290;6.918;2022-12-18T01:52:21;8.07;;;4.27;;
10450;SDS011;5273;51.290;6.918;2022-12-18T01:54:50;6.60;;;3.90;;
10450;SDS011;5273;51.290;6.918;2022-12-18T01:57:18;8.50;;;4.90;;
10450;SDS011;5273;51.290;6.918;2022-12-18T01:59:47;5.97;;;4.00;;
10450;SDS011;5273;51.290;6.918;2022-12-18T02:02:19;8.03;;;4.47;;
10450;SDS011;5273;51.290;6.918;2022-12-18T02:04:47;7.17;;;4.50;;
10450;SDS011;5273;51.290;6.918;2022-12-18T02:07:14;8.33;;;4.90;;
10450;SDS011;5273;51.290;6.918;2022-12-18T02:09:47;7.70;;;5.20;;
10450;SDS011;5273;51.290;6.918;2022-12-18T02:12:18;8.77;;;4.97;;
10450;SDS011;5273;51.290;6.918;2022-12-18T02:14:48;5.33;;;3.10;;
10450;SDS011;5273;51.290;6.918;2022-12-18T02:17:22;7.03;;;3.77;;
10450;SDS011;5273;51.290;6.918;2022-12-18T02:20:01;10.27;;;4.70;;
10450;SDS011;5273;51.290;6.918;2022-12-18T02:22:36;5.27;;;3.80;;
10450;SDS011;5273;51.290;6.918;2022-12-18T02:25:19;5.60;;;3.80;;
10450;SDS011;5273;51.290;6.918;2022-12-18T02:27:57;8.07;;;4.60;;
10450;SDS011;5273;51.290;6.918;2022-12-18T02:30:26;10.17;;;5.43;;
10450;SDS011;5273;51.290;6.918;2022-12-18T02:32:57;7.77;;;3.70;;
10450;SDS011;5273;51.290;6.918;2022-12-18T02:35:27;10.47;;;4.37;;
10450;SDS011;5273;51.290;6.918;2022-12-18T02:37:56;7.57;;;4.23;;
10450;SDS011;5273;51.290;6.918;2022-12-18T02:40:25;9.00;;;5.10;;
10450;SDS011;5273;51.290;6.918;2022-12-18T02:42:53;4.03;;;3.63;;
10450;SDS011;5273;51.290;6.918;2022-12-18T02:45:21;7.87;;;4.43;;
10450;SDS011;5273;51.290;6.918;2022-12-18T02:47:48;10.57;;;4.83;;
10450;SDS011;5273;51.290;6.918;2022-12-18T02:50:18;8.37;;;4.73;;
10450;SDS011;5273;51.290;6.918;2022-12-18T02:52:52;6.93;;;4.40;;
10450;SDS011;5273;51.290;6.918;2022-12-18T02:55:29;7.90;;;4.10;;
10450;SDS011;5273;51.290;6.918;2022-12-18T02:58:04;6.90;;;4.53;;
10450;SDS011;5273;51.290;6.918;2022-12-18T03:00:37;7.10;;;4.30;;
10450;SDS011;5273;51.290;6.918;2022-12-18T03:03:09;6.27;;;4.10;;
10450;SDS011;5273;51.290;6.918;2022-12-18T03:05:41;9.63;;;5.23;;
10450;SDS011;5273;51.290;6.918;2022-12-18T03:08:17;8.87;;;4.97;;
10450;SDS011;5273;51.290;6.918;2022-12-18T03:10:48;7.20;;;4.50;;
10450;SDS011;5273;51.290;6.918;2022-12-18T03:13:19;6.90;;;4.50;;
10450;SDS011;5273;51.290;6.918;2022-12-18T03:15:51;6.73;;;4.07;;
10450;SDS011;5273;51.290;6.918;2022-12-18T03:18:21;5.90;;;4.37;;
10450;SDS011;5273;51.290;6.918;2022-12-18T03:20:51;6.10;;;3.87;;
10450;SDS011;5273;51.290;6.918;2022-12-18T03:23:23;6.90;;;3.60;;
10450;SDS011;5273;51.290;6.918;2022-12-18T03:25:56;9.03;;;3.93;;
10450;SDS011;5273;51.290;6.918;2022-12-18T03:28:25;6.83;;;4.17;;
10450;SDS011;5273;51.290;6.918;2022-12-18T03:30:57;7.40;;;3.97;;
10450;SDS011;5273;51.290;6.918;2022-12-18T03:33:27;7.17;;;3.60;;
10450;SDS011;5273;51.290;6.918;2022-12-18T03:35:57;8.40;;;4.10;;
10450;SDS011;5273;51.290;6.918;2022-12-18T03:38:24;7.70;;;3.70;;
10450;SDS011;5273;51.290;6.918;2022-12-18T03:40:53;5.07;;;3.20;;
10450;SDS011;5273;51.290;6.918;2022-12-18T03:43:30;6.97;;;3.60;;
10450;SDS011;5273;51.290;6.918;2022-12-18T03:46:06;6.27;;;3.57;;
10450;SDS011;5273;51.290;6.918;2022-12-18T03:48:41;6.47;;;3.80;;
10450;SDS011;5273;51.290;6.918;2022-12-18T03:51:11;7.30;;;3.73;;
10450;SDS011;5273;51.290;6.918;2022-12-18T03:53:43;4.90;;;3.10;;
10450;SDS011;5273;51.290;6.918;2022-12-18T03:56:16;5.30;;;3.47;;
10450;SDS011;5273;51.290;6.918;2022-12-18T03:58:44;7.17;;;4.10;;
10450;SDS011;5273;51.290;6.918;2022-12-18T04:01:14;6.00;;;3.03;;
10450;SDS011;5273;51.290;6.918;2022-12-18T04:03:42;6.10;;;3.90;;
10450;SDS011;5273;51.290;6.918;2022-12-18T04:06:11;4.93;;;3.70;;
10450;SDS011;5273;51.290;6.918;2022-12-18T04:08:39;4.70;;;3.27;;
10450;SDS011;5273;51.290;6.918;2022-12-18T04:11:07;5.07;;;3.50;;
10450;SDS011;5273;51.290;6.918;2022-12-18T04:13:35;6.37;;;4.17;;
10450;SDS011;5273;51.290;6.918;2022-12-18T04:16:02;8.23;;;3.63;;
10450;SDS011;5273;51.290;6.918;2022-12-18T04:18:31;5.33;;;3.40;;
10450;SDS011;5273;51.290;6.918;2022-12-18T04:20:58;6.30;;;3.33;;
10450;SDS011;5273;51.290;6.918;2022-12-18T04:23:25;5.43;;;3.43;;
10450;SDS011;5273;51.290;6.918;2022-12-18T04:25:52;6.17;;;3.00;;
10450;SDS011;5273;51.290;6.918;2022-12-18T04:28:18;4.67;;;3.30;;
10450;SDS011;5273;51.290;6.918;2022-12-18T04:30:48;4.60;;;3.13;;
10450;SDS011;5273;51.290;6.918;2022-12-18T04:33:18;4.77;;;2.47;;
10450;SDS011;5273;51.290;6.918;2022-12-18T04:35:46;5.53;;;2.97;;
10450;SDS011;5273;51.290;6.918;2022-12-18T04:38:13;3.23;;;2.63;;
10450;SDS011;5273;51.290;6.918;2022-12-18T04:40:40;4.07;;;2.80;;
10450;SDS011;5273;51.290;6.918;2022-12-18T04:43:07;5.00;;;2.93;;
10450;SDS011;5273;51.290;6.918;2022-12-18T04:45:34;5.03;;;2.83;;
10450;SDS011;5273;51.290;6.918;2022-12-18T04:48:01;4.63;;;3.00;;
10450;SDS011;5273;51.290;6.918;2022-12-18T04:50:29;5.30;;;3.33;;
10450;SDS011;5273;51.290;6.918;2022-12-18T04:52:57;3.13;;;2.57;;
10450;SDS011;5273;51.290;6.918;2022-12-18T04:55:24;3.20;;;2.60;;
10450;SDS011;5273;51.290;6.918;2022-12-18T04:57:51;4.07;;;3.00;;
10450;SDS011;5273;51.290;6.918;2022-12-18T05:00:18;4.20;;;2.63;;
10450;SDS011;5273;51.290;6.918;2022-12-18T05:02:45;3.27;;;2.47;;
10450;SDS011;5273;51.290;6.918;2022-12-18T05:05:12;4.30;;;2.13;;
10450;SDS011;5273;51.290;6.918;2022-12-18T05:07:39;3.53;;;2.67;;
10450;SDS011;5273;51.290;6.918;2022-12-18T05:10:07;3.07;;;2.40;;
10450;SDS011;5273;51.290;6.918;2022-12-18T05:12:35;5.40;;;2.97;;
10450;SDS011;5273;51.290;6.918;2022-12-18T05:15:22;5.33;;;3.40;;
10450;SDS011;5273;51.290;6.918;2022-12-18T05:17:48;5.07;;;3.20;;
10450;SDS011;5273;51.290;6.918;2022-12-18T05:20:15;4.27;;;2.73;;
10450;SDS011;5273;51.290;6.918;2022-12-18T05:22:43;2.87;;;2.17;;
10450;SDS011;5273;51.290;6.918;2022-12-18T05:25:11;3.30;;;2.47;;
10450;SDS011;5273;51.290;6.918;2022-12-18T05:27:38;2.73;;;2.37;;
10450;SDS011;5273;51.290;6.918;2022-12-18T05:30:05;2.90;;;2.00;;
10450;SDS011;5273;51.290;6.918;2022-12-18T05:32:33;3.63;;;2.60;;
10450;SDS011;5273;51.290;6.918;2022-12-18T05:34:59;3.07;;;2.13;;
10450;SDS011;5273;51.290;6.918;2022-12-18T05:37:26;3.80;;;2.90;;
10450;SDS011;5273;51.290;6.918;2022-12-18T05:39:53;2.60;;;2.40;;
10450;SDS011;5273;51.290;6.918;2022-12-18T05:42:21;2.27;;;2.00;;
10450;SDS011;5273;51.290;6.918;2022-12-18T05:44:48;4.60;;;2.57;;
10450;SDS011;5273;51.290;6.918;2022-12-18T05:47:15;3.33;;;2.33;;
10450;SDS011;5273;51.290;6.918;2022-12-18T05:49:41;3.33;;;2.30;;
10450;SDS011;5273;51.290;6.918;2022-12-18T05:52:08;3.53;;;2.40;;
10450;SDS011;5273;51.290;6.918;2022-12-18T05:54:35;3.43;;;2.10;;
10450;SDS011;5273;51.290;6.918;2022-12-18T05:57:02;4.43;;;2.33;;
10450;SDS011;5273;51.290;6.918;2022-12-18T05:59:30;3.33;;;2.77;;
10450;SDS011;5273;51.290;6.918;2022-12-18T06:01:57;3.80;;;2.03;;
10450;SDS011;5273;51.290;6.918;2022-12-18T06:04:24;2.57;;;2.37;;
10450;SDS011;5273;51.290;6.918;2022-12-18T06:06:52;2.40;;;2.10;;
10450;SDS011;5273;51.290;6.918;2022-12-18T06:09:19;5.00;;;2.60;;
10450;SDS011;5273;51.290;6.918;2022-12-18T06:11:46;3.67;;;2.47;;
10450;SDS011;5273;51.290;6.918;2022-12-18T06:14:13;5.07;;;2.60;;
10450;SDS011;5273;51.290;6.918;2022-12-18T06:16:43;7.53;;;2.50;;
10450;SDS011;5273;51.290;6.918;2022-12-18T06:19:12;2.63;;;2.43;;
10450;SDS011;5273;51.290;6.918;2022-12-18T06:21:41;4.30;;;2.90;;
10450;SDS011;5273;51.290;6.918;2022-12-18T06:24:08;6.13;;;3.67;;
10450;SDS011;5273;51.290;6.918;2022-12-18T06:26:36;5.37;;;2.83;;
10450;SDS011;5273;51.290;6.918;2022-12-18T06:29:04;3.47;;;2.50;;
10450;SDS011;5273;51.290;6.918;2022-12-18T06:31:31;6.07;;;3.00;;
10450;SDS011;5273;51.290;6.918;2022-12-18T06:33:59;4.30;;;2.90;;
10450;SDS011;5273;51.290;6.918;2022-12-18T06:36:28;4.10;;;2.60;;
10450;SDS011;5273;51.290;6.918;2022-12-18T06:38:55;4.50;;;3.10;;
10450;SDS011;5273;51.290;6.918;2022-12-18T06:41:23;6.07;;;3.30;;
10450;SDS011;5273;51.290;6.918;2022-12-18T06:43:50;7.57;;;3.37;;
10450;SDS011;5273;51.290;6.918;2022-12-18T06:46:16;5.20;;;2.93;;
10450;SDS011;5273;51.290;6.918;2022-12-18T06:48:46;5.17;;;3.40;;
10450;SDS011;5273;51.290;6.918;2022-12-18T06:51:16;4.47;;;2.97;;
10450;SDS011;5273;51.290;6.918;2022-12-18T06:53:44;5.40;;;3.23;;
10450;SDS011;5273;51.290;6.918;2022-12-18T06:56:10;4.93;;;2.97;;
10450;SDS011;5273;51.290;6.918;2022-12-18T06:58:37;4.53;;;3.13;;
10450;SDS011;5273;51.290;6.918;2022-12-18T07:01:05;5.73;;;2.90;;
10450;SDS011;5273;51.290;6.918;2022-12-18T07:03:33;5.93;;;3.23;;
10450;SDS011;5273;51.290;6.918;2022-12-18T07:06:00;3.10;;;2.40;;
10450;SDS011;5273;51.290;6.918;2022-12-18T07:08:29;4.13;;;3.10;;
10450;SDS011;5273;51.290;6.918;2022-12-18T07:10:56;3.93;;;2.60;;
10450;SDS011;5273;51.290;6.918;2022-12-18T07:13:23;2.57;;;2.03;;
10450;SDS011;5273;51.290;6.918;2022-12-18T07:15:50;4.10;;;2.57;;
10450;SDS011;5273;51.290;6.918;2022-12-18T07:18:17;4.93;;;2.77;;
10450;SDS011;5273;51.290;6.918;2022-12-18T07:20:44;5.27;;;2.90;;
10450;SDS011;5273;51.290;6.918;2022-12-18T07:23:11;4.13;;;3.03;;
10450;SDS011;5273;51.290;6.918;2022-12-18T07:25:39;2.93;;;2.30;;
10450;SDS011;5273;51.290;6.918;2022-12-18T07:28:06;5.93;;;3.30;;
10450;SDS011;5273;51.290;6.918;2022-12-18T07:30:33;4.77;;;3.67;;
10450;SDS011;5273;51.290;6.918;2022-12-18T07:32:59;5.90;;;3.30;;
10450;SDS011;5273;51.290;6.918;2022-12-18T07:35:26;5.77;;;3.47;;
10450;SDS011;5273;51.290;6.918;2022-12-18T07:37:53;7.30;;;3.33;;
10450;SDS011;5273;51.290;6.918;2022-12-18T07:40:20;3.87;;;2.60;;
10450;SDS011;5273;51.290;6.918;2022-12-18T07:42:48;4.70;;;2.87;;
10450;SDS011;5273;51.290;6.918;2022-12-18T07:45:15;5.50;;;3.17;;
10450;SDS011;5273;51.290;6.918;2022-12-18T07:47:41;5.77;;;3.47;;
10450;SDS011;5273;51.290;6.918;2022-12-18T07:50:08;4.03;;;2.57;;
10450;SDS011;5273;51.290;6.918;2022-12-18T07:52:35;6.10;;;3.50;;
10450;SDS011;5273;51.290;6.918;2022-12-18T07:55:02;4.40;;;2.97;;
10450;SDS011;5273;51.290;6.918;2022-12-18T07:57:29;3.70;;;2.70;;
10450;SDS011;5273;51.290;6.918;2022-12-18T07:59:57;4.80;;;2.70;;
10450;SDS011;5273;51.290;6.918;2022-12-18T08:02:24;5.53;;;3.37;;
10450;SDS011;5273;51.290;6.918;2022-12-18T08:04:51;5.73;;;3.37;;
10450;SDS011;5273;51.290;6.918;2022-12-18T08:07:18;4.40;;;2.90;;
10450;SDS011;5273;51.290;6.918;2022-12-18T08:09:44;6.67;;;3.93;;
10450;SDS011;5273;51.290;6.918;2022-12-18T08:12:11;4.30;;;3.63;;
10450;SDS011;5273;51.290;6.918;2022-12-18T08:14:38;6.50;;;3.97;;
10450;SDS011;5273;51.290;6.918;2022-12-18T08:17:06;6.37;;;3.30;;
10450;SDS011;5273;51.290;6.918;2022-12-18T08:19:33;6.50;;;3.80;;
10450;SDS011;5273;51.290;6.918;2022-12-18T08:21:59;4.83;;;2.97;;
10450;SDS011;5273;51.290;6.918;2022-12-18T08:24:27;4.93;;;3.43;;
10450;SDS011;5273;51.290;6.918;2022-12-18T08:26:54;5.60;;;4.30;;
10450;SDS011;5273;51.290;6.918;2022-12-18T08:29:22;5.87;;;3.73;;
10450;SDS011;5273;51.290;6.918;2022-12-18T08:31:48;6.73;;;4.07;;
10450;SDS011;5273;51.290;6.918;2022-12-18T08:34:17;5.40;;;3.10;;
10450;SDS011;5273;51.290;6.918;2022-12-18T08:36:43;7.87;;;4.20;;
10450;SDS011;5273;51.290;6.918;2022-12-18T08:39:10;6.10;;;3.20;;
10450;SDS011;5273;51.290;6.918;2022-12-18T08:41:37;6.47;;;3.50;;
10450;SDS011;5273;51.290;6.918;2022-12-18T08:44:04;6.07;;;3.73;;
10450;SDS011;5273;51.290;6.918;2022-12-18T08:46:48;4.43;;;3.53;;
10450;SDS011;5273;51.290;6.918;2022-12-18T08:49:16;5.20;;;3.23;;
10450;SDS011;5273;51.290;6.918;2022-12-18T08:51:43;7.10;;;3.83;;
10450;SDS011;5273;51.290;6.918;2022-12-18T08:54:10;5.33;;;3.63;;
10450;SDS011;5273;51.290;6.918;2022-12-18T08:56:38;6.63;;;3.70;;
10450;SDS011;5273;51.290;6.918;2022-12-18T08:59:04;4.00;;;2.77;;
10450;SDS011;5273;51.290;6.918;2022-12-18T09:01:31;5.00;;;3.20;;
10450;SDS011;5273;51.290;6.918;2022-12-18T09:03:58;6.30;;;3.67;;
10450;SDS011;5273;51.290;6.918;2022-12-18T09:06:26;5.80;;;3.60;;
10450;SDS011;5273;51.290;6.918;2022-12-18T09:08:53;4.57;;;3.40;;
10450;SDS011;5273;51.290;6.918;2022-12-18T09:11:20;6.03;;;3.80;;
10450;SDS011;5273;51.290;6.918;2022-12-18T09:13:48;4.63;;;3.23;;
10450;SDS011;5273;51.290;6.918;2022-12-18T09:16:15;3.40;;;2.80;;
10450;SDS011;5273;51.290;6.918;2022-12-18T09:18:42;6.13;;;2.97;;
10450;SDS011;5273;51.290;6.918;2022-12-18T09:21:10;5.03;;;3.23;;
10450;SDS011;5273;51.290;6.918;2022-12-18T09:23:40;5.37;;;3.60;;
10450;SDS011;5273;51.290;6.918;2022-12-18T09:26:07;3.47;;;2.83;;
10450;SDS011;5273;51.290;6.918;2022-12-18T09:28:34;4.37;;;2.97;;
10450;SDS011;5273;51.290;6.918;2022-12-18T09:31:03;4.17;;;3.07;;
10450;SDS011;5273;51.290;6.918;2022-12-18T09:33:32;4.93;;;3.50;;
10450;SDS011;5273;51.290;6.918;2022-12-18T09:36:00;4.10;;;3.20;;
10450;SDS011;5273;51.290;6.918;2022-12-18T09:38:27;5.00;;;3.33;;
10450;SDS011;5273;51.290;6.918;2022-12-18T09:40:56;4.50;;;3.10;;
10450;SDS011;5273;51.290;6.918;2022-12-18T09:43:26;6.63;;;3.57;;
10450;SDS011;5273;51.290;6.918;2022-12-18T09:45:56;4.73;;;3.47;;
10450;SDS011;5273;51.290;6.918;2022-12-18T09:48:29;6.07;;;3.43;;
10450;SDS011;5273;51.290;6.918;2022-12-18T09:50:59;4.87;;;3.03;;
10450;SDS011;5273;51.290;6.918;2022-12-18T09:53:30;6.37;;;3.57;;
10450;SDS011;5273;51.290;6.918;2022-12-18T09:56:02;4.07;;;2.67;;
10450;SDS011;5273;51.290;6.918;2022-12-18T09:58:31;5.00;;;3.37;;
10450;SDS011;5273;51.290;6.918;2022-12-18T10:01:02;5.50;;;2.90;;
10450;SDS011;5273;51.290;6.918;2022-12-18T10:03:36;4.07;;;2.77;;
10450;SDS011;5273;51.290;6.918;2022-12-18T10:06:05;6.07;;;3.90;;
10450;SDS011;5273;51.290;6.918;2022-12-18T10:08:39;6.70;;;3.23;;
10450;SDS011;5273;51.290;6.918;2022-12-18T10:11:21;4.53;;;3.30;;
10450;SDS011;5273;51.290;6.918;2022-12-18T10:13:55;5.83;;;4.23;;
10450;SDS011;5273;51.290;6.918;2022-12-18T10:16:27;6.83;;;3.60;;
10450;SDS011;5273;51.290;6.918;2022-12-18T10:19:09;6.00;;;3.90;;
10450;SDS011;5273;51.290;6.918;2022-12-18T10:22:00;6.43;;;3.63;;
10450;SDS011;5273;51.290;6.918;2022-12-18T10:24:37;9.33;;;4.33;;
10450;SDS011;5273;51.290;6.918;2022-12-18T10:27:12;6.83;;;3.70;;
10450;SDS011;5273;51.290;6.918;2022-12-18T10:29:41;5.00;;;3.63;;
10450;SDS011;5273;51.290;6.918;2022-12-18T10:32:09;5.03;;;3.87;;
10450;SDS011;5273;51.290;6.918;2022-12-18T10:34:40;5.00;;;3.10;;
10450;SDS011;5273;51.290;6.918;2022-12-18T10:37:09;4.90;;;3.03;;
10450;SDS011;5273;51.290;6.918;2022-12-18T10:39:40;5.33;;;3.87;;
10450;SDS011;5273;51.290;6.918;2022-12-18T10:42:09;6.40;;;3.50;;
10450;SDS011;5273;51.290;6.918;2022-12-18T10:44:42;6.07;;;3.83;;
10450;SDS011;5273;51.290;6.918;2022-12-18T10:47:11;6.13;;;4.07;;
10450;SDS011;5273;51.290;6.918;2022-12-18T10:49:42;4.50;;;3.20;;
10450;SDS011;5273;51.290;6.918;2022-12-18T10:52:15;5.83;;;3.40;;
10450;SDS011;5273;51.290;6.918;2022-12-18T10:54:48;6.57;;;4.33;;
10450;SDS011;5273;51.290;6.918;2022-12-18T10:57:33;5.63;;;3.80;;
10450;SDS011;5273;51.290;6.918;2022-12-18T11:00:19;7.10;;;4.40;;
10450;SDS011;5273;51.290;6.918;2022-12-18T11:02:49;5.87;;;3.80;;
10450;SDS011;5273;51.290;6.918;2022-12-18T11:05:23;5.73;;;3.97;;
10450;SDS011;5273;51.290;6.918;2022-12-18T11:07:51;4.57;;;3.77;;
10450;SDS011;5273;51.290;6.918;2022-12-18T11:10:20;6.30;;;3.67;;
10450;SDS011;5273;51.290;6.918;2022-12-18T11:12:49;6.63;;;3.70;;
10450;SDS011;5273;51.290;6.918;2022-12-18T11:15:16;5.90;;;3.80;;
10450;SDS011;5273;51.290;6.918;2022-12-18T11:17:47;6.70;;;4.23;;
10450;SDS011;5273;51.290;6.918;2022-12-18T11:20:30;5.63;;;4.43;;
10450;SDS011;5273;51.290;6.918;2022-12-18T11:22:59;7.10;;;4.50;;
10450;SDS011;5273;51.290;6.918;2022-12-18T11:25:30;9.00;;;4.07;;
10450;SDS011;5273;51.290;6.918;2022-12-18T11:28:00;6.40;;;4.03;;
10450;SDS011;5273;51.290;6.918;2022-12-18T11:30:29;7.17;;;3.43;;
10450;SDS011;5273;51.290;6.918;2022-12-18T11:32:59;4.80;;;3.27;;
10450;SDS011;5273;51.290;6.918;2022-12-18T11:35:37;7.70;;;4.17;;
10450;SDS011;5273;51.290;6.918;2022-12-18T11:38:12;5.63;;;3.97;;
10450;SDS011;5273;51.290;6.918;2022-12-18T11:40:44;6.97;;;4.23;;
10450;SDS011;5273;51.290;6.918;2022-12-18T11:43:18;7.73;;;4.20;;
10450;SDS011;5273;51.290;6.918;2022-12-18T11:45:51;5.23;;;3.60;;
10450;SDS011;5273;51.290;6.918;2022-12-18T11:48:22;5.90;;;3.40;;
10450;SDS011;5273;51.290;6.918;2022-12-18T11:50:54;8.43;;;3.77;;
10450;SDS011;5273;51.290;6.918;2022-12-18T11:53:22;5.10;;;3.70;;
10450;SDS011;5273;51.290;6.918;2022-12-18T11:55:56;9.60;;;4.03;;
10450;SDS011;5273;51.290;6.918;2022-12-18T11:58:37;7.20;;;3.73;;
10450;SDS011;5273;51.290;6.918;2022-12-18T12:01:14;8.67;;;4.70;;
10450;SDS011;5273;51.290;6.918;2022-12-18T12:04:02;8.03;;;4.80;;
10450;SDS011;5273;51.290;6.918;2022-12-18T12:06:45;7.20;;;4.03;;
10450;SDS011;5273;51.290;6.918;2022-12-18T12:09:20;7.97;;;4.67;;
10450;SDS011;5273;51.290;6.918;2022-12-18T12:12:10;10.27;;;5.13;;
10450;SDS011;5273;51.290;6.918;2022-12-18T12:14:54;6.03;;;3.93;;
10450;SDS011;5273;51.290;6.918;2022-12-18T12:17:31;7.87;;;4.20;;
10450;SDS011;5273;51.290;6.918;2022-12-18T12:20:06;7.07;;;4.03;;
10450;SDS011;5273;51.290;6.918;2022-12-18T12:22:39;6.20;;;4.47;;
10450;SDS011;5273;51.290;6.918;2022-12-18T12:25:15;7.37;;;3.90;;
10450;SDS011;5273;51.290;6.918;2022-12-18T12:27:51;6.17;;;4.37;;
10450;SDS011;5273;51.290;6.918;2022-12-18T12:30:30;8.60;;;4.80;;
10450;SDS011;5273;51.290;6.918;2022-12-18T12:33:09;6.77;;;4.70;;
10450;SDS011;5273;51.290;6.918;2022-12-18T12:35:46;9.00;;;4.37;;
10450;SDS011;5273;51.290;6.918;2022-12-18T12:38:19;6.63;;;4.33;;
10450;SDS011;5273;51.290;6.918;2022-12-18T12:40:51;7.97;;;4.50;;
10450;SDS011;5273;51.290;6.918;2022-12-18T12:43:24;8.30;;;5.83;;
10450;SDS011;5273;51.290;6.918;2022-12-18T12:46:05;7.83;;;4.80;;
10450;SDS011;5273;51.290;6.918;2022-12-18T12:48:34;9.83;;;5.87;;
10450;SDS011;5273;51.290;6.918;2022-12-18T12:51:07;8.47;;;4.30;;
10450;SDS011;5273;51.290;6.918;2022-12-18T12:53:38;6.30;;;4.03;;
10450;SDS011;5273;51.290;6.918;2022-12-18T12:56:06;8.87;;;5.93;;
10450;SDS011;5273;51.290;6.918;2022-12-18T12:58:37;10.17;;;5.60;;
10450;SDS011;5273;51.290;6.918;2022-12-18T13:01:14;9.30;;;4.80;;
10450;SDS011;5273;51.290;6.918;2022-12-18T13:03:52;8.10;;;5.30;;
10450;SDS011;5273;51.290;6.918;2022-12-18T13:06:29;9.00;;;5.27;;
10450;SDS011;5273;51.290;6.918;2022-12-18T13:09:03;9.33;;;5.13;;
10450;SDS011;5273;51.290;6.918;2022-12-18T13:11:31;8.17;;;5.30;;
10450;SDS011;5273;51.290;6.918;2022-12-18T13:14:20;9.03;;;5.73;;
10450;SDS011;5273;51.290;6.918;2022-12-18T13:16:51;8.00;;;5.03;;
10450;SDS011;5273;51.290;6.918;2022-12-18T13:19:21;8.97;;;5.53;;
10450;SDS011;5273;51.290;6.918;2022-12-18T13:21:52;10.43;;;6.40;;
10450;SDS011;5273;51.290;6.918;2022-12-18T13:24:23;10.77;;;5.87;;
10450;SDS011;5273;51.290;6.918;2022-12-18T13:26:51;10.67;;;6.10;;
10450;SDS011;5273;51.290;6.918;2022-12-18T13:32:22;9.77;;;5.80;;
10450;SDS011;5273;51.290;6.918;2022-12-18T13:37:52;13.23;;;6.90;;
10450;SDS011;5273;51.290;6.918;2022-12-18T13:43:28;10.50;;;7.33;;
10450;SDS011;5273;51.290;6.918;2022-12-18T13:46:01;13.10;;;7.20;;
10450;SDS011;5273;51.290;6.918;2022-12-18T13:48:33;9.00;;;6.33;;
10450;SDS011;5273;51.290;6.918;2022-12-18T13:51:03;13.47;;;6.47;;
10450;SDS011;5273;51.290;6.918;2022-12-18T13:53:33;9.57;;;6.03;;
10450;SDS011;5273;51.290;6.918;2022-12-18T13:56:03;7.53;;;5.33;;
10450;SDS011;5273;51.290;6.918;2022-12-18T13:58:31;12.13;;;6.67;;
10450;SDS011;5273;51.290;6.918;2022-12-18T14:00:59;11.93;;;7.23;;
10450;SDS011;5273;51.290;6.918;2022-12-18T14:03:28;19.53;;;6.70;;
10450;SDS011;5273;51.290;6.918;2022-12-18T14:05:58;11.40;;;6.40;;
10450;SDS011;5273;51.290;6.918;2022-12-18T14:08:29;12.90;;;6.07;;
10450;SDS011;5273;51.290;6.918;2022-12-18T14:11:00;12.20;;;7.53;;
10450;SDS011;5273;51.290;6.918;2022-12-18T14:13:30;9.20;;;5.90;;
10450;SDS011;5273;51.290;6.918;2022-12-18T14:15:59;12.90;;;6.70;;
10450;SDS011;5273;51.290;6.918;2022-12-18T14:18:29;9.67;;;6.17;;
10450;SDS011;5273;51.290;6.918;2022-12-18T14:21:04;11.17;;;6.70;;
10450;SDS011;5273;51.290;6.918;2022-12-18T14:23:32;10.93;;;7.43;;
10450;SDS011;5273;51.290;6.918;2022-12-18T14:26:00;9.90;;;5.67;;
10450;SDS011;5273;51.290;6.918;2022-12-18T14:28:28;13.93;;;6.83;;
10450;SDS011;5273;51.290;6.918;2022-12-18T14:30:56;10.53;;;6.03;;
10450;SDS011;5273;51.290;6.918;2022-12-18T14:33:23;14.00;;;7.60;;
10450;SDS011;5273;51.290;6.918;2022-12-18T14:35:52;15.47;;;8.17;;
10450;SDS011;5273;51.290;6.918;2022-12-18T14:38:26;12.43;;;7.10;;
10450;SDS011;5273;51.290;6.918;2022-12-18T14:40:59;9.20;;;6.30;;
10450;SDS011;5273;51.290;6.918;2022-12-18T14:43:28;14.37;;;8.20;;
10450;SDS011;5273;51.290;6.918;2022-12-18T14:45:57;8.23;;;5.83;;
10450;SDS011;5273;51.290;6.918;2022-12-18T14:48:31;14.23;;;6.23;;
10450;SDS011;5273;51.290;6.918;2022-12-18T14:51:01;10.60;;;6.80;;
10450;SDS011;5273;51.290;6.918;2022-12-18T14:53:35;11.27;;;6.37;;
10450;SDS011;5273;51.290;6.918;2022-12-18T14:56:04;13.77;;;6.33;;
10450;SDS011;5273;51.290;6.918;2022-12-18T14:58:44;12.10;;;6.50;;
10450;SDS011;5273;51.290;6.918;2022-12-18T15:01:17;13.97;;;8.07;;
10450;SDS011;5273;51.290;6.918;2022-12-18T15:03:45;10.90;;;6.20;;
10450;SDS011;5273;51.290;6.918;2022-12-18T15:06:16;11.60;;;6.80;;
10450;SDS011;5273;51.290;6.918;2022-12-18T15:08:45;8.57;;;6.00;;
10450;SDS011;5273;51.290;6.918;2022-12-18T15:11:26;9.13;;;5.67;;
10450;SDS011;5273;51.290;6.918;2022-12-18T15:13:54;13.40;;;6.17;;
10450;SDS011;5273;51.290;6.918;2022-12-18T15:16:23;12.00;;;6.20;;
10450;SDS011;5273;51.290;6.918;2022-12-18T15:18:50;11.23;;;6.27;;
10450;SDS011;5273;51.290;6.918;2022-12-18T15:21:18;11.40;;;6.20;;
10450;SDS011;5273;51.290;6.918;2022-12-18T15:23:48;12.10;;;7.43;;
10450;SDS011;5273;51.290;6.918;2022-12-18T15:26:17;13.57;;;8.00;;
10450;SDS011;5273;51.290;6.918;2022-12-18T15:28:45;10.17;;;6.00;;